createdAt,value
2023-05-17T00:01:46.922Z,55.74
2023-05-17T00:04:13.663Z,55.72
2023-05-17T00:06:41.039Z,56.03
2023-05-17T00:09:07.640Z,56.25
2023-05-17T00:11:34.374Z,55.41
2023-05-17T00:14:01.029Z,55.55
2023-05-17T00:16:27.680Z,55.68
2023-05-17T00:18:54.561Z,56.09
2023-05-17T00:21:21.229Z,55.52
2023-05-17T00:23:47.732Z,55.82
2023-05-17T00:26:14.254Z,57.29
2023-05-17T00:28:40.791Z,57.19
2023-05-17T00:31:07.264Z,56.66
2023-05-17T00:33:33.808Z,56.76
2023-05-17T00:36:06.885Z,56.60
2023-05-17T00:38:36.231Z,56.80
2023-05-17T00:41:02.721Z,56.33
2023-05-17T00:43:29.229Z,56.54
2023-05-17T00:45:55.851Z,56.29
2023-05-17T00:48:26.090Z,55.94
2023-05-17T00:50:55.072Z,56.03
2023-05-17T00:53:22.538Z,55.26
2023-05-17T00:55:49.482Z,55.70
2023-05-17T00:58:19.205Z,56.06
2023-05-17T01:00:46.576Z,56.95
2023-05-17T01:03:13.171Z,57.05
2023-05-17T01:05:40.259Z,57.16
2023-05-17T01:08:17.688Z,57.55
2023-05-17T01:11:14.102Z,57.70
2023-05-17T01:13:57.485Z,57.70
2023-05-17T01:16:57.188Z,57.95
2023-05-17T01:20:00.925Z,57.92
2023-05-17T01:22:46.918Z,57.10
2023-05-17T01:25:29.096Z,57.84
2023-05-17T01:28:00.468Z,57.78
2023-05-17T01:30:31.431Z,57.94
2023-05-17T01:32:59.413Z,58.06
2023-05-17T01:35:27.020Z,57.43
2023-05-17T01:37:54.240Z,56.90
2023-05-17T01:40:22.749Z,57.52
2023-05-17T01:43:11.919Z,57.28
2023-05-17T01:45:49.809Z,56.90
2023-05-17T01:48:35.426Z,56.46
2023-05-17T01:51:03.898Z,56.34
2023-05-17T01:53:38.767Z,56.36
2023-05-17T01:56:14.939Z,56.78
2023-05-17T01:58:48.421Z,56.76
2023-05-17T02:01:25.964Z,57.34
2023-05-17T02:03:52.509Z,57.53
2023-05-17T02:06:19.031Z,57.19
2023-05-17T02:08:45.670Z,56.63
2023-05-17T02:11:17.446Z,56.33
2023-05-17T02:13:43.987Z,56.72
2023-05-17T02:16:11.000Z,56.80
2023-05-17T02:18:38.112Z,56.24
2023-05-17T02:21:05.293Z,56.41
2023-05-17T02:23:31.837Z,55.97
2023-05-17T02:26:00.648Z,55.87
2023-05-17T02:28:35.969Z,55.87
2023-05-17T02:31:02.569Z,56.03
2023-05-17T02:33:29.530Z,55.42
2023-05-17T02:35:56.146Z,55.85
2023-05-17T02:38:22.620Z,55.70
2023-05-17T02:40:49.098Z,56.03
2023-05-17T02:43:15.589Z,55.97
2023-05-17T02:45:44.835Z,55.54
2023-05-17T02:48:11.394Z,55.94
2023-05-17T02:50:51.433Z,56.03
2023-05-17T02:53:36.732Z,55.84
2023-05-17T02:56:03.984Z,56.07
2023-05-17T02:58:30.673Z,55.75
2023-05-17T03:00:57.214Z,56.52
2023-05-17T03:03:23.860Z,56.07
2023-05-17T03:05:50.492Z,56.07
2023-05-17T03:08:17.006Z,56.55
2023-05-17T03:10:43.598Z,56.23
2023-05-17T03:13:10.229Z,56.62
2023-05-17T03:15:36.889Z,56.78
2023-05-17T03:18:11.076Z,56.55
2023-05-17T03:20:41.775Z,56.84
2023-05-17T03:23:15.055Z,57.20
2023-05-17T03:25:41.569Z,57.79
2023-05-17T03:28:08.080Z,57.06
2023-05-17T03:30:37.395Z,57.16
2023-05-17T03:33:04.154Z,57.53
2023-05-17T03:35:31.045Z,57.77
2023-05-17T03:37:57.743Z,57.45
2023-05-17T03:40:24.272Z,57.36
2023-05-17T03:42:51.735Z,58.28
2023-05-17T03:45:19.306Z,58.50
2023-05-17T03:47:46.005Z,59.09
2023-05-17T03:50:12.621Z,58.98
2023-05-17T03:52:41.840Z,58.71
2023-05-17T03:55:09.372Z,58.12
2023-05-17T03:57:35.924Z,58.42
2023-05-17T04:00:03.565Z,57.99
2023-05-17T04:02:30.066Z,57.30
2023-05-17T04:04:56.711Z,57.16
2023-05-17T04:07:23.268Z,57.35
2023-05-17T04:09:49.772Z,57.25
2023-05-17T04:12:16.350Z,57.69
2023-05-17T04:14:43.137Z,57.54
2023-05-17T04:17:09.622Z,57.56
2023-05-17T04:19:36.180Z,57.76
2023-05-17T04:22:02.788Z,58.19
2023-05-17T04:24:29.295Z,58.99
2023-05-17T04:26:55.834Z,58.50
2023-05-17T04:29:22.431Z,58.56
2023-05-17T04:31:49.587Z,58.37
2023-05-17T04:34:16.242Z,57.86
2023-05-17T04:36:43.043Z,57.73
2023-05-17T04:39:09.600Z,58.04
2023-05-17T04:41:36.143Z,57.96
2023-05-17T04:44:02.829Z,57.81
2023-05-17T04:46:29.573Z,57.91
2023-05-17T04:48:56.337Z,57.73
2023-05-17T04:51:23.000Z,57.58
2023-05-17T04:53:49.646Z,57.45
2023-05-17T04:56:16.458Z,57.42
2023-05-17T04:58:43.046Z,58.42
2023-05-17T05:01:09.559Z,58.31
2023-05-17T05:03:36.704Z,58.31
2023-05-17T05:06:04.242Z,58.38
2023-05-17T05:08:33.248Z,58.50
2023-05-17T05:10:59.761Z,58.23
2023-05-17T05:13:26.350Z,57.97
2023-05-17T05:15:52.998Z,59.03
2023-05-17T05:18:19.663Z,58.77
2023-05-17T05:20:48.893Z,58.37
2023-05-17T05:23:15.656Z,58.87
2023-05-17T05:25:44.018Z,59.13
2023-05-17T05:28:11.149Z,58.93
2023-05-17T05:30:37.709Z,58.92
2023-05-17T05:33:04.820Z,59.03
2023-05-17T05:35:31.566Z,59.23
2023-05-17T05:37:59.231Z,58.52
2023-05-17T05:40:25.984Z,58.50
2023-05-17T05:42:53.711Z,58.77
2023-05-17T05:45:21.624Z,58.86
2023-05-17T05:47:48.597Z,58.97
2023-05-17T05:50:15.511Z,58.25
2023-05-17T05:52:42.072Z,58.61
2023-05-17T05:55:09.162Z,58.61
2023-05-17T05:57:35.908Z,57.95
2023-05-17T06:00:04.824Z,57.97
2023-05-17T06:02:31.620Z,58.23
2023-05-17T06:04:59.427Z,58.06
2023-05-17T06:07:26.040Z,58.20
2023-05-17T06:09:52.615Z,57.83
2023-05-17T06:12:20.716Z,57.57
2023-05-17T06:14:47.456Z,57.59
2023-05-17T06:17:13.958Z,57.57
2023-05-17T06:19:40.724Z,57.72
2023-05-17T06:22:07.301Z,57.20
2023-05-17T06:24:33.930Z,58.55
2023-05-17T06:27:00.429Z,58.00
2023-05-17T06:29:27.022Z,58.21
2023-05-17T06:31:56.281Z,58.50
2023-05-17T06:34:22.914Z,58.41
2023-05-17T06:36:49.464Z,57.65
2023-05-17T06:39:16.013Z,57.33
2023-05-17T06:41:42.792Z,57.03
2023-05-17T06:44:09.438Z,56.51
2023-05-17T06:46:35.990Z,55.75
2023-05-17T06:49:02.744Z,56.36
2023-05-17T06:51:29.419Z,56.36
2023-05-17T06:53:56.013Z,56.50
2023-05-17T06:56:22.815Z,54.90
2023-05-17T06:58:49.344Z,54.22
2023-05-17T07:01:16.867Z,53.49
2023-05-17T07:03:43.441Z,52.37
2023-05-17T07:06:10.089Z,51.97
2023-05-17T07:08:36.609Z,51.17
2023-05-17T07:11:03.672Z,50.58
2023-05-17T07:13:32.068Z,50.91
2023-05-17T07:15:58.621Z,50.07
2023-05-17T07:18:25.253Z,49.95
2023-05-17T07:20:51.791Z,50.07
2023-05-17T07:23:18.479Z,46.85
2023-05-17T07:25:46.280Z,47.47
2023-05-17T07:28:12.818Z,46.97
2023-05-17T07:30:39.521Z,46.82
2023-05-17T07:33:06.088Z,47.00
2023-05-17T07:35:32.840Z,47.30
2023-05-17T07:37:59.562Z,46.97
2023-05-17T07:40:26.228Z,45.95
2023-05-17T07:42:53.110Z,45.76
2023-05-17T07:45:19.733Z,45.51
2023-05-17T07:47:46.364Z,45.79
2023-05-17T07:50:13.027Z,45.97
2023-05-17T07:52:39.724Z,44.25
2023-05-17T07:55:07.137Z,43.05
2023-05-17T07:57:33.719Z,42.96
2023-05-17T08:00:00.561Z,43.04
2023-05-17T08:02:28.613Z,40.53
2023-05-17T08:04:55.390Z,40.63
2023-05-17T08:07:21.921Z,40.68
2023-05-17T08:09:48.437Z,40.64
2023-05-17T08:12:14.991Z,41.96
2023-05-17T08:14:41.568Z,42.02
2023-05-17T08:17:08.203Z,41.91
2023-05-17T08:19:34.978Z,42.28
2023-05-17T08:22:01.634Z,42.25
2023-05-17T08:24:28.215Z,42.51
2023-05-17T08:26:54.701Z,42.26
2023-05-17T08:29:21.309Z,42.26
2023-05-17T08:31:47.794Z,41.78
2023-05-17T08:34:14.554Z,41.66
2023-05-17T08:36:41.270Z,41.14
2023-05-17T08:39:08.610Z,40.62
2023-05-17T08:41:38.671Z,40.13
2023-05-17T08:44:06.334Z,40.00
2023-05-17T08:46:36.716Z,40.00
2023-05-17T08:49:06.743Z,40.54
2023-05-17T08:51:33.733Z,40.30
2023-05-17T08:54:00.662Z,40.86
2023-05-17T08:56:31.020Z,40.88
2023-05-17T08:58:58.935Z,40.13
2023-05-17T09:01:27.932Z,39.88
2023-05-17T09:03:55.109Z,40.25
2023-05-17T09:06:23.486Z,39.44
2023-05-17T09:08:54.821Z,39.25
2023-05-17T09:11:33.003Z,39.40
2023-05-17T09:14:09.107Z,39.13
2023-05-17T09:16:37.794Z,39.20
2023-05-17T09:19:07.498Z,39.00
2023-05-17T09:21:34.378Z,37.57
2023-05-17T09:26:44.838Z,36.77
2023-05-17T09:29:16.267Z,36.48
2023-05-17T09:31:43.979Z,37.34
2023-05-17T09:34:11.755Z,37.51
2023-05-17T09:36:43.566Z,37.40
2023-05-17T09:39:13.013Z,35.14
2023-05-17T09:41:48.652Z,36.41
2023-05-17T09:44:16.382Z,36.86
2023-05-17T09:46:47.158Z,36.35
2023-05-17T09:49:14.857Z,37.03
2023-05-17T09:51:43.920Z,37.42
2023-05-17T09:54:11.833Z,38.09
2023-05-17T09:56:39.115Z,37.42
2023-05-17T09:59:16.264Z,36.51
2023-05-17T10:01:45.867Z,37.07
2023-05-17T10:04:13.885Z,37.78
2023-05-17T10:09:14.911Z,36.86
2023-05-17T10:11:47.001Z,36.52
2023-05-17T10:14:22.577Z,34.84
2023-05-17T10:16:51.630Z,35.88
2023-05-17T10:19:20.972Z,35.49
2023-05-17T10:21:54.925Z,34.64
2023-05-17T10:24:23.282Z,35.32
2023-05-17T10:26:51.277Z,35.53
2023-05-17T10:29:21.119Z,34.21
2023-05-17T10:31:52.873Z,34.54
2023-05-17T10:34:20.744Z,34.97
2023-05-17T10:36:49.981Z,35.15
2023-05-17T10:39:17.022Z,35.05
2023-05-17T10:41:48.549Z,33.49
2023-05-17T10:44:17.479Z,34.25
2023-05-17T10:46:59.506Z,32.85
2023-05-17T10:49:30.204Z,34.69
2023-05-17T10:52:18.892Z,34.06
2023-05-17T10:54:53.519Z,34.15
2023-05-17T10:57:39.098Z,34.51
2023-05-17T11:00:21.696Z,33.65
2023-05-17T11:02:49.172Z,34.86
2023-05-17T11:05:27.204Z,33.37
2023-05-17T11:08:15.785Z,34.05
2023-05-17T11:11:18.133Z,33.59
2023-05-17T11:14:04.261Z,35.46
2023-05-17T11:16:38.300Z,35.09
2023-05-17T11:19:11.899Z,33.58
2023-05-17T11:21:48.746Z,34.51
2023-05-17T11:24:27.268Z,34.70
2023-05-17T11:26:55.561Z,34.64
2023-05-17T11:29:30.788Z,34.84
2023-05-17T11:31:57.427Z,34.09
2023-05-17T11:34:25.528Z,34.50
2023-05-17T11:36:54.632Z,34.50
2023-05-17T11:39:23.901Z,32.41
2023-05-17T11:41:56.088Z,33.88
2023-05-17T11:44:31.463Z,34.12
2023-05-17T11:47:06.985Z,34.56
2023-05-17T11:49:37.833Z,34.72
2023-05-17T11:52:08.566Z,33.30
2023-05-17T11:54:40.250Z,32.32
2023-05-17T11:57:07.168Z,33.07
2023-05-17T11:59:39.713Z,32.26
2023-05-17T12:02:06.490Z,33.15
2023-05-17T12:04:39.133Z,32.42
2023-05-17T12:07:10.464Z,33.09
2023-05-17T12:09:40.263Z,32.74
2023-05-17T12:12:07.657Z,32.88
2023-05-17T12:14:34.629Z,31.52
2023-05-17T12:17:05.687Z,32.67
2023-05-17T12:19:33.010Z,32.90
2023-05-17T12:22:14.617Z,30.95
2023-05-17T12:24:42.919Z,31.44
2023-05-17T12:27:10.095Z,31.98
2023-05-17T12:29:36.747Z,32.27
2023-05-17T12:32:05.864Z,32.86
2023-05-17T12:34:32.704Z,33.40
2023-05-17T12:36:59.439Z,33.33
2023-05-17T12:39:26.416Z,33.04
2023-05-17T12:41:54.321Z,32.77
2023-05-17T12:44:21.181Z,33.49
2023-05-17T12:46:53.548Z,33.85
2023-05-17T12:49:23.485Z,33.66
2023-05-17T12:51:50.221Z,32.44
2023-05-17T12:54:28.631Z,31.15
2023-05-17T12:56:56.519Z,31.70
2023-05-17T12:59:25.871Z,32.69
2023-05-17T13:01:56.652Z,33.12
2023-05-17T13:04:34.545Z,31.86
2023-05-17T13:07:04.527Z,32.33
2023-05-17T13:09:33.610Z,32.09
2023-05-17T13:12:05.232Z,31.90
2023-05-17T13:14:55.012Z,31.69
2023-05-17T13:17:36.785Z,32.13
2023-05-17T13:20:05.987Z,32.43
2023-05-17T13:22:33.833Z,32.42
2023-05-17T13:25:00.386Z,32.13
2023-05-17T13:27:28.213Z,29.98
2023-05-17T13:29:54.723Z,32.14
2023-05-17T13:32:21.528Z,32.44
2023-05-17T13:34:48.054Z,32.89
2023-05-17T13:37:14.655Z,32.32
2023-05-17T13:39:42.052Z,32.42
2023-05-17T13:42:10.504Z,32.75
2023-05-17T13:44:38.433Z,32.16
2023-05-17T13:47:05.885Z,31.84
2023-05-17T13:49:32.590Z,32.26
2023-05-17T13:52:00.530Z,32.21
2023-05-17T13:54:27.089Z,32.45
2023-05-17T13:56:55.365Z,32.65
2023-05-17T13:59:21.864Z,31.47
2023-05-17T14:01:48.349Z,31.50
2023-05-17T14:04:14.913Z,31.54
2023-05-17T14:06:42.205Z,31.81
2023-05-17T14:09:10.368Z,31.67
2023-05-17T14:11:36.930Z,32.32
2023-05-17T14:14:04.223Z,32.60
2023-05-17T14:16:31.127Z,31.32
2023-05-17T14:18:57.739Z,31.12
2023-05-17T14:21:24.369Z,30.74
2023-05-17T14:23:50.927Z,31.49
2023-05-17T14:26:17.569Z,31.74
2023-05-17T14:28:44.068Z,31.93
2023-05-17T14:31:10.768Z,31.66
2023-05-17T14:33:37.476Z,31.67
2023-05-17T14:36:04.614Z,31.71
2023-05-17T14:38:31.369Z,31.73
2023-05-17T14:41:00.616Z,32.12
2023-05-17T14:43:28.764Z,32.43
2023-05-17T14:45:55.330Z,31.88
2023-05-17T14:48:22.333Z,32.09
2023-05-17T14:50:49.154Z,31.31
2023-05-17T14:53:16.399Z,31.31
2023-05-17T14:55:43.344Z,31.39
2023-05-17T14:58:12.931Z,31.42
2023-05-17T15:00:41.581Z,32.32
2023-05-17T15:03:09.100Z,32.77
2023-05-17T15:05:36.066Z,32.67
2023-05-17T15:08:02.606Z,32.62
2023-05-17T15:10:29.891Z,32.71
2023-05-17T15:12:56.511Z,32.97
2023-05-17T15:15:23.204Z,33.13
2023-05-17T15:17:49.789Z,32.51
2023-05-17T15:20:18.239Z,32.63
2023-05-17T15:22:44.826Z,32.02
2023-05-17T15:25:11.457Z,32.25
2023-05-17T15:27:38.024Z,31.73
2023-05-17T15:30:05.380Z,32.35
2023-05-17T15:32:34.248Z,29.71
2023-05-17T15:35:00.868Z,31.40
2023-05-17T15:37:27.666Z,31.62
2023-05-17T15:39:54.165Z,29.86
2023-05-17T15:42:20.643Z,30.01
2023-05-17T15:44:47.164Z,30.25
2023-05-17T15:47:13.788Z,30.82
2023-05-17T15:49:41.247Z,31.32
2023-05-17T15:52:07.817Z,32.23
2023-05-17T15:54:34.316Z,32.34
2023-05-17T15:57:01.030Z,32.02
2023-05-17T15:59:27.591Z,32.26
2023-05-17T16:01:54.197Z,32.49
2023-05-17T16:04:20.777Z,33.01
2023-05-17T16:06:47.359Z,33.25
2023-05-17T16:09:14.369Z,33.26
2023-05-17T16:11:40.873Z,32.68
2023-05-17T16:14:07.411Z,32.97
2023-05-17T16:16:33.956Z,33.27
2023-05-17T16:19:01.092Z,33.88
2023-05-17T16:21:27.658Z,33.79
2023-05-17T16:23:54.207Z,33.42
2023-05-17T16:26:21.138Z,33.36
2023-05-17T16:28:48.108Z,32.87
2023-05-17T16:31:14.719Z,33.26
2023-05-17T16:33:42.380Z,33.29
2023-05-17T16:36:09.002Z,33.37
2023-05-17T16:38:35.831Z,32.83
2023-05-17T16:41:03.286Z,32.90
2023-05-17T16:43:31.121Z,33.07
2023-05-17T16:45:57.757Z,33.23
2023-05-17T16:48:24.496Z,31.79
2023-05-17T16:50:51.547Z,31.92
2023-05-17T16:53:18.728Z,32.32
2023-05-17T16:55:45.629Z,32.58
2023-05-17T16:58:12.188Z,33.21
2023-05-17T17:00:38.933Z,33.55
2023-05-17T17:03:09.000Z,33.60
2023-05-17T17:05:36.421Z,33.39
2023-05-17T17:08:03.067Z,33.71
2023-05-17T17:10:30.051Z,33.60
2023-05-17T17:12:57.155Z,32.73
2023-05-17T17:15:23.882Z,33.67
2023-05-17T17:17:50.751Z,32.80
2023-05-17T17:20:17.956Z,33.33
2023-05-17T17:22:44.617Z,33.89
2023-05-17T17:25:11.259Z,34.11
2023-05-17T17:27:37.806Z,34.59
2023-05-17T17:30:05.464Z,34.94
2023-05-17T17:32:32.380Z,35.00
2023-05-17T17:34:59.039Z,35.10
2023-05-17T17:37:25.638Z,35.22
2023-05-17T17:39:52.269Z,34.84
2023-05-17T17:42:19.392Z,34.45
2023-05-17T17:44:46.017Z,34.29
2023-05-17T17:47:12.823Z,33.30
2023-05-17T17:49:39.493Z,33.73
2023-05-17T17:52:06.277Z,33.96
2023-05-17T17:54:32.846Z,34.33
2023-05-17T17:56:59.399Z,34.43
2023-05-17T17:59:25.929Z,34.65
2023-05-17T18:01:52.716Z,34.23
2023-05-17T18:04:19.462Z,34.52
2023-05-17T18:06:46.131Z,34.63
2023-05-17T18:09:12.779Z,34.44
2023-05-17T18:11:39.313Z,32.98
2023-05-17T18:14:07.045Z,33.65
2023-05-17T18:16:34.084Z,34.17
2023-05-17T18:19:01.004Z,34.73
2023-05-17T18:21:29.336Z,35.29
2023-05-17T18:23:55.969Z,35.46
2023-05-17T18:26:23.259Z,35.47
2023-05-17T18:28:50.924Z,35.69
2023-05-17T18:31:18.373Z,35.74
2023-05-17T18:33:45.346Z,35.63
2023-05-17T18:36:12.068Z,36.29
2023-05-17T18:38:38.727Z,35.61
2023-05-17T18:41:05.294Z,36.12
2023-05-17T18:43:31.894Z,36.66
2023-05-17T18:45:58.472Z,36.92
2023-05-17T18:48:25.222Z,37.04
2023-05-17T18:50:51.800Z,37.32
2023-05-17T18:53:18.358Z,37.22
2023-05-17T18:55:45.017Z,37.68
2023-05-17T18:58:11.549Z,37.82
2023-05-17T19:00:38.262Z,38.08
2023-05-17T19:03:04.929Z,38.26
2023-05-17T19:05:31.588Z,38.66
2023-05-17T19:07:58.149Z,38.58
2023-05-17T19:10:24.753Z,38.85
2023-05-17T19:12:51.292Z,39.39
2023-05-17T19:15:18.010Z,39.45
2023-05-17T19:17:45.237Z,39.53
2023-05-17T19:20:12.337Z,39.44
2023-05-17T19:22:38.869Z,40.08
2023-05-17T19:25:06.530Z,40.23
2023-05-17T19:27:33.057Z,40.09
2023-05-17T19:29:59.542Z,40.34
2023-05-17T19:32:26.880Z,40.10
2023-05-17T19:34:54.707Z,40.72
2023-05-17T19:37:21.406Z,40.83
2023-05-17T19:39:47.977Z,41.87
2023-05-17T19:42:14.530Z,42.47
2023-05-17T19:44:41.092Z,43.42
2023-05-17T19:47:07.675Z,43.32
2023-05-17T19:49:34.269Z,43.13
2023-05-17T19:52:01.197Z,43.25
2023-05-17T19:54:29.523Z,43.58
2023-05-17T19:56:57.177Z,43.97
2023-05-17T19:59:23.703Z,44.25
2023-05-17T20:01:50.884Z,44.54
2023-05-17T20:04:20.468Z,44.77
2023-05-17T20:06:47.113Z,44.78
2023-05-17T20:09:13.659Z,45.18
2023-05-17T20:11:40.297Z,45.20
2023-05-17T20:14:06.972Z,45.42
2023-05-17T20:16:33.565Z,45.75
2023-05-17T20:19:00.952Z,45.55
2023-05-17T20:21:27.992Z,45.54
2023-05-17T20:24:01.125Z,45.69
2023-05-17T20:26:31.934Z,46.05
2023-05-17T20:28:59.117Z,46.36
2023-05-17T20:31:29.030Z,46.29
2023-05-17T20:33:55.614Z,46.22
2023-05-17T20:36:22.197Z,47.02
2023-05-17T20:38:48.859Z,46.76
2023-05-17T20:41:15.944Z,46.86
2023-05-17T20:43:47.029Z,47.61
2023-05-17T20:46:14.005Z,47.69
2023-05-17T20:48:42.956Z,47.75
2023-05-17T20:51:10.699Z,48.02
2023-05-17T20:53:37.792Z,48.63
2023-05-17T20:56:06.291Z,48.44
2023-05-17T20:58:33.645Z,48.47
2023-05-17T21:01:01.122Z,48.51
2023-05-17T21:03:33.105Z,48.36
2023-05-17T21:06:02.005Z,48.66
2023-05-17T21:08:28.688Z,48.61
2023-05-17T21:10:56.075Z,49.19
2023-05-17T21:13:25.349Z,49.18
2023-05-17T21:15:55.869Z,49.40
2023-05-17T21:18:25.838Z,49.85
2023-05-17T21:20:53.248Z,49.92
2023-05-17T21:23:20.161Z,50.52
2023-05-17T21:25:47.359Z,50.21
2023-05-17T21:28:14.058Z,50.41
2023-05-17T21:30:40.633Z,49.98
2023-05-17T21:33:07.291Z,50.73
2023-05-17T21:35:33.927Z,50.12
2023-05-17T21:38:00.525Z,50.34
2023-05-17T21:40:27.126Z,49.88
2023-05-17T21:42:53.650Z,50.85
2023-05-17T21:45:20.331Z,51.04
2023-05-17T21:47:47.077Z,51.26
2023-05-17T21:50:13.814Z,51.41
2023-05-17T21:52:40.536Z,51.78
2023-05-17T21:55:08.628Z,51.31
2023-05-17T21:57:36.545Z,50.64
2023-05-17T22:00:07.755Z,50.11
2023-05-17T22:02:35.819Z,50.58
2023-05-17T22:05:02.706Z,50.36
2023-05-17T22:07:29.309Z,50.33
2023-05-17T22:09:58.852Z,50.73
2023-05-17T22:12:26.192Z,51.36
2023-05-17T22:14:55.698Z,51.64
2023-05-17T22:17:39.320Z,51.59
2023-05-17T22:20:14.267Z,51.63
2023-05-17T22:22:40.826Z,51.35
2023-05-17T22:25:08.378Z,51.69
2023-05-17T22:27:35.070Z,52.24
2023-05-17T22:30:01.649Z,52.24
2023-05-17T22:32:28.197Z,52.16
2023-05-17T22:34:56.163Z,52.41
2023-05-17T22:37:23.568Z,52.68
2023-05-17T22:39:50.370Z,52.06
2023-05-17T22:42:16.971Z,52.94
2023-05-17T22:44:43.471Z,53.08
2023-05-17T22:47:14.572Z,53.55
2023-05-17T22:49:41.688Z,53.30
2023-05-17T22:52:22.928Z,53.52
2023-05-17T22:54:49.477Z,53.60
2023-05-17T22:57:16.111Z,53.42
2023-05-17T22:59:43.952Z,53.09
2023-05-17T23:02:12.113Z,52.63
2023-05-17T23:04:40.004Z,53.23
2023-05-17T23:07:10.117Z,53.59
2023-05-17T23:09:40.395Z,54.06
2023-05-17T23:12:08.778Z,53.82
2023-05-17T23:14:36.535Z,54.11
2023-05-17T23:17:12.128Z,54.02
2023-05-17T23:19:40.403Z,54.60
2023-05-17T23:22:10.673Z,55.19
2023-05-17T23:25:02.258Z,54.96
2023-05-17T23:27:33.159Z,55.32
2023-05-17T23:30:00.945Z,55.63
2023-05-17T23:32:32.245Z,55.53
2023-05-17T23:35:03.264Z,56.07
2023-05-17T23:37:32.046Z,55.50
2023-05-17T23:39:59.412Z,55.94
2023-05-17T23:42:32.222Z,56.02
2023-05-17T23:45:00.451Z,55.89
2023-05-17T23:47:33.794Z,55.95
2023-05-17T23:50:00.992Z,55.78
2023-05-17T23:52:29.915Z,55.49
2023-05-17T23:54:57.725Z,56.47
2023-05-17T23:57:24.753Z,56.33
2023-05-17T23:59:51.283Z,56.12
